createdAt,value
2019-04-05T00:00:48.289Z,13.81
2019-04-05T00:03:21.055Z,13.80
2019-04-05T00:05:53.889Z,13.75
2019-04-05T00:08:26.715Z,13.66
2019-04-05T00:10:59.559Z,13.64
2019-04-05T00:13:32.359Z,13.65
2019-04-05T00:16:05.344Z,13.59
2019-04-05T00:18:38.631Z,13.55
2019-04-05T00:21:11.401Z,13.51
2019-04-05T00:23:44.285Z,13.46
2019-04-05T00:26:17.138Z,13.34
2019-04-05T00:28:51.733Z,13.34
2019-04-05T00:31:26.625Z,13.35
2019-04-05T00:34:00.497Z,13.43
2019-04-05T00:36:33.444Z,13.46
2019-04-05T00:39:09.604Z,13.48
2019-04-05T00:41:42.441Z,13.53
2019-04-05T00:44:15.382Z,13.49
2019-04-05T00:46:48.183Z,13.53
2019-04-05T00:49:20.943Z,13.52
2019-04-05T00:51:53.754Z,13.56
2019-04-05T00:54:26.529Z,13.59
2019-04-05T00:56:59.887Z,13.62
2019-04-05T00:59:32.948Z,13.66
2019-04-05T01:02:06.365Z,13.65
2019-04-05T01:04:40.284Z,13.63
2019-04-05T01:07:13.095Z,13.70
2019-04-05T01:09:47.352Z,13.70
2019-04-05T01:12:21.843Z,13.71
2019-04-05T01:14:56.270Z,13.73
2019-04-05T01:17:29.086Z,13.74
2019-04-05T01:20:04.643Z,13.71
2019-04-05T01:22:37.610Z,13.68
2019-04-05T01:25:10.837Z,13.62
2019-04-05T01:27:44.435Z,13.60
2019-04-05T01:30:18.590Z,13.60
2019-04-05T01:32:51.454Z,13.58
2019-04-05T01:35:24.443Z,13.52
2019-04-05T01:37:57.985Z,13.48
2019-04-05T01:40:32.963Z,13.42
2019-04-05T01:43:06.033Z,13.39
2019-04-05T01:45:38.999Z,13.39
2019-04-05T01:48:12.103Z,13.39
2019-04-05T01:50:44.896Z,13.30
2019-04-05T01:53:17.872Z,13.26
2019-04-05T01:55:50.634Z,13.21
2019-04-05T01:58:23.418Z,13.20
2019-04-05T02:00:56.225Z,13.21
2019-04-05T02:03:30.062Z,13.20
2019-04-05T02:06:02.956Z,13.20
2019-04-05T02:08:35.766Z,13.26
2019-04-05T02:11:08.972Z,13.22
2019-04-05T02:13:42.042Z,13.22
2019-04-05T02:16:14.829Z,13.19
2019-04-05T02:18:47.826Z,13.14
2019-04-05T02:21:20.594Z,13.15
2019-04-05T02:23:53.479Z,13.11
2019-04-05T02:26:31.450Z,13.12
2019-04-05T02:29:04.248Z,13.12
2019-04-05T02:31:38.138Z,13.05
2019-04-05T02:34:10.930Z,12.89
2019-04-05T02:36:43.737Z,12.72
2019-04-05T02:39:16.604Z,12.65
2019-04-05T02:41:50.056Z,12.59
2019-04-05T02:44:24.525Z,12.60
2019-04-05T02:46:58.202Z,12.56
2019-04-05T02:49:33.044Z,12.56
2019-04-05T02:52:07.333Z,12.55
2019-04-05T02:54:40.804Z,12.54
2019-04-05T02:57:14.912Z,12.56
2019-04-05T02:59:48.793Z,12.53
2019-04-05T03:02:22.589Z,12.46
2019-04-05T03:04:55.693Z,12.44
2019-04-05T03:07:29.631Z,12.41
2019-04-05T03:10:02.835Z,12.32
2019-04-05T03:12:37.049Z,12.25
2019-04-05T03:15:10.495Z,12.21
2019-04-05T03:17:43.743Z,12.13
2019-04-05T03:20:16.525Z,12.01
2019-04-05T03:22:49.466Z,11.93
2019-04-05T03:25:22.255Z,11.82
2019-04-05T03:27:55.230Z,11.79
2019-04-05T03:30:28.497Z,11.77
2019-04-05T03:33:01.719Z,11.75
2019-04-05T03:35:34.784Z,11.75
2019-04-05T03:38:08.919Z,11.68
2019-04-05T03:40:42.324Z,11.54
2019-04-05T03:43:15.208Z,11.46
2019-04-05T03:45:48.287Z,11.38
2019-04-05T03:48:23.771Z,11.31
2019-04-05T03:50:56.968Z,11.24
2019-04-05T03:53:29.876Z,11.22
2019-04-05T03:56:03.276Z,11.21
2019-04-05T03:58:36.161Z,11.21
2019-04-05T04:01:09.450Z,11.16
2019-04-05T04:03:42.665Z,11.13
2019-04-05T04:06:17.256Z,11.04
2019-04-05T04:08:50.106Z,11.01
2019-04-05T04:11:23.384Z,11.01
2019-04-05T04:13:56.390Z,10.96
2019-04-05T04:16:30.209Z,10.92
2019-04-05T04:19:03.392Z,10.85
2019-04-05T04:22:18.652Z,10.79
2019-04-05T04:24:51.799Z,10.78
2019-04-05T04:27:25.240Z,10.79
2019-04-05T04:30:00.491Z,10.77
2019-04-05T04:32:33.671Z,10.78
2019-04-05T04:35:07.411Z,10.84
2019-04-05T04:37:40.200Z,10.89
2019-04-05T04:40:15.224Z,10.94
2019-04-05T04:42:48.484Z,10.95
2019-04-05T04:45:21.862Z,10.97
2019-04-05T04:47:55.550Z,10.99
2019-04-05T04:50:29.380Z,11.03
2019-04-05T04:53:02.704Z,11.08
2019-04-05T04:55:36.334Z,11.20
2019-04-05T04:58:09.296Z,11.17
2019-04-05T05:00:42.177Z,11.22
2019-04-05T05:03:15.453Z,11.27
2019-04-05T05:05:48.445Z,11.28
2019-04-05T05:08:21.267Z,11.27
2019-04-05T05:10:54.419Z,11.36
2019-04-05T05:13:28.959Z,11.35
2019-04-05T05:16:04.491Z,11.42
2019-04-05T05:18:45.004Z,11.37
2019-04-05T05:21:18.114Z,11.41
2019-04-05T05:23:50.888Z,11.52
2019-04-05T05:26:24.197Z,11.53
2019-04-05T05:28:57.102Z,11.62
2019-04-05T05:31:29.989Z,11.69
2019-04-05T05:34:03.063Z,11.69
2019-04-05T05:36:36.469Z,11.79
2019-04-05T05:39:10.251Z,11.85
2019-04-05T05:41:43.068Z,11.95
2019-04-05T05:44:15.939Z,12.07
2019-04-05T05:46:48.735Z,12.15
2019-04-05T05:49:21.513Z,12.25
2019-04-05T05:51:54.952Z,12.34
2019-04-05T05:54:27.739Z,12.44
2019-04-05T05:57:00.657Z,12.57
2019-04-05T05:59:33.637Z,12.61
2019-04-05T06:02:07.399Z,12.68
2019-04-05T06:04:40.526Z,12.83
2019-04-05T06:07:13.393Z,12.98
2019-04-05T06:09:47.760Z,13.16
2019-04-05T06:12:20.658Z,13.34
2019-04-05T06:14:55.403Z,13.47
2019-04-05T06:17:28.160Z,13.60
2019-04-05T06:20:00.927Z,13.65
2019-04-05T06:22:33.924Z,13.64
2019-04-05T06:25:07.282Z,13.76
2019-04-05T06:27:40.060Z,13.87
2019-04-05T06:30:13.129Z,13.91
2019-04-05T06:32:46.056Z,13.99
2019-04-05T06:35:19.168Z,13.99
2019-04-05T06:37:52.010Z,14.07
2019-04-05T06:40:25.073Z,14.15
2019-04-05T06:42:57.828Z,14.31
2019-04-05T06:45:30.719Z,14.40
2019-04-05T06:48:03.573Z,14.40
2019-04-05T06:50:36.336Z,14.44
2019-04-05T06:53:09.144Z,14.51
2019-04-05T06:55:42.013Z,14.53
2019-04-05T06:58:19.882Z,14.57
2019-04-05T07:00:56.839Z,14.56
2019-04-05T07:03:23.882Z,14.67
2019-04-05T07:05:56.669Z,14.71
2019-04-05T07:08:29.512Z,14.77
2019-04-05T07:11:02.283Z,14.83
2019-04-05T07:13:35.204Z,14.96
2019-04-05T07:16:10.989Z,15.11
2019-04-05T07:18:43.091Z,15.32
2019-04-05T07:21:17.457Z,15.66
2019-04-05T07:23:50.402Z,15.88
2019-04-05T07:26:23.274Z,16.16
2019-04-05T07:28:56.395Z,16.41
2019-04-05T07:31:29.353Z,16.46
2019-04-05T07:34:02.266Z,16.68
2019-04-05T07:36:35.251Z,16.85
2019-04-05T07:39:09.455Z,16.84
2019-04-05T07:41:42.434Z,16.94
2019-04-05T07:44:15.203Z,17.21
2019-04-05T07:46:48.139Z,17.55
2019-04-05T07:49:21.094Z,17.65
2019-04-05T07:51:54.048Z,17.84
2019-04-05T07:54:26.849Z,18.02
2019-04-05T07:57:01.567Z,18.11
2019-04-05T07:59:38.012Z,18.38
2019-04-05T08:02:12.276Z,18.50
2019-04-05T08:04:45.171Z,18.62
2019-04-05T08:07:19.424Z,18.44
2019-04-05T08:09:54.542Z,18.39
2019-04-05T08:12:28.145Z,18.81
2019-04-05T08:15:01.182Z,19.10
2019-04-05T08:17:34.138Z,19.01
2019-04-05T08:20:07.601Z,19.38
2019-04-05T08:22:40.543Z,19.91
2019-04-05T08:25:13.951Z,20.11
2019-04-05T08:27:46.918Z,20.13
2019-04-05T08:30:19.871Z,20.48
2019-04-05T08:32:52.624Z,20.67
2019-04-05T08:35:25.421Z,20.94
2019-04-05T08:37:59.669Z,20.76
2019-04-05T08:40:32.757Z,21.08
2019-04-05T08:43:05.636Z,21.51
2019-04-05T08:45:38.431Z,21.40
2019-04-05T08:48:11.285Z,21.92
2019-04-05T08:50:44.293Z,22.19
2019-04-05T08:53:17.090Z,22.29
2019-04-05T08:55:49.886Z,21.69
2019-04-05T08:58:33.322Z,21.73
2019-04-05T09:00:58.420Z,21.90
2019-04-05T09:03:31.319Z,22.30
2019-04-05T09:06:04.113Z,22.93
2019-04-05T09:08:37.015Z,22.90
2019-04-05T09:11:09.776Z,22.74
2019-04-05T09:13:42.810Z,22.64
2019-04-05T09:16:16.773Z,21.82
2019-04-05T09:18:49.739Z,21.97
2019-04-05T09:21:22.637Z,22.39
2019-04-05T09:23:55.535Z,21.68
2019-04-05T09:26:28.328Z,21.42
2019-04-05T09:29:01.128Z,22.02
2019-04-05T09:31:34.028Z,22.28
2019-04-05T09:34:07.013Z,21.49
2019-04-05T09:36:40.014Z,22.10
2019-04-05T09:39:15.708Z,22.09
2019-04-05T09:41:47.472Z,22.29
2019-04-05T09:44:20.463Z,21.42
2019-04-05T09:46:53.274Z,21.25
2019-04-05T09:49:36.076Z,20.95
2019-04-05T09:52:00.895Z,20.65
2019-04-05T09:54:34.004Z,20.66
2019-04-05T09:57:06.887Z,21.04
2019-04-05T09:59:40.253Z,20.79
2019-04-05T10:02:13.150Z,21.02
2019-04-05T10:04:46.010Z,21.19
2019-04-05T10:07:18.986Z,20.70
2019-04-05T10:09:51.767Z,20.81
2019-04-05T10:12:24.846Z,20.94
2019-04-05T10:14:57.622Z,21.09
2019-04-05T10:17:30.521Z,21.69
2019-04-05T10:20:03.394Z,21.34
2019-04-05T10:22:36.356Z,21.22
2019-04-05T10:25:09.645Z,21.93
2019-04-05T10:27:42.449Z,22.53
2019-04-05T10:30:15.641Z,23.54
2019-04-05T10:32:48.460Z,23.65
2019-04-05T10:35:21.405Z,24.15
2019-04-05T10:37:54.250Z,24.36
2019-04-05T10:40:27.032Z,23.88
2019-04-05T10:42:59.871Z,24.58
2019-04-05T10:45:32.806Z,24.59
2019-04-05T10:48:05.690Z,24.58
2019-04-05T10:50:38.492Z,24.64
2019-04-05T10:53:11.397Z,24.74
2019-04-05T10:55:44.223Z,24.41
2019-04-05T10:58:17.373Z,24.50
2019-04-05T11:00:50.232Z,24.67
2019-04-05T11:03:24.226Z,24.73
2019-04-05T11:05:57.217Z,24.71
2019-04-05T11:08:30.055Z,24.87
2019-04-05T11:11:02.838Z,24.69
2019-04-05T11:13:35.944Z,24.39
2019-04-05T11:16:08.765Z,24.68
2019-04-05T11:18:44.925Z,24.82
2019-04-05T11:21:18.337Z,24.93
2019-04-05T11:23:53.608Z,25.03
2019-04-05T11:26:26.263Z,24.53
2019-04-05T11:28:59.125Z,22.96
2019-04-05T11:31:32.040Z,23.78
2019-04-05T11:34:07.295Z,24.01
2019-04-05T11:36:41.172Z,24.78
2019-04-05T11:39:15.865Z,25.38
2019-04-05T11:41:52.001Z,25.32
2019-04-05T11:44:26.390Z,24.97
2019-04-05T11:46:59.206Z,24.25
2019-04-05T11:49:34.836Z,24.23
2019-04-05T11:52:07.642Z,24.59
2019-04-05T11:54:40.695Z,24.08
2019-04-05T11:57:14.080Z,24.04
2019-04-05T11:59:48.589Z,24.17
2019-04-05T12:02:38.170Z,24.44
2019-04-05T12:05:12.995Z,24.67
2019-04-05T12:07:45.837Z,24.47
2019-04-05T12:10:19.554Z,24.30
2019-04-05T12:12:52.471Z,24.47
2019-04-05T12:15:25.387Z,23.49
2019-04-05T12:17:58.680Z,23.82
2019-04-05T12:20:33.246Z,23.77
2019-04-05T12:23:06.250Z,24.31
2019-04-05T12:25:39.028Z,24.27
2019-04-05T12:28:12.247Z,24.40
2019-04-05T12:30:46.662Z,24.35
2019-04-05T12:33:20.451Z,23.67
2019-04-05T12:35:56.465Z,23.73
2019-04-05T12:38:34.570Z,24.11
2019-04-05T12:41:10.672Z,24.12
2019-04-05T12:43:44.610Z,23.99
2019-04-05T12:46:16.789Z,24.05
2019-04-05T12:48:49.698Z,23.81
2019-04-05T12:51:22.571Z,23.67
2019-04-05T12:53:56.745Z,23.64
2019-04-05T12:56:29.862Z,23.54
2019-04-05T12:59:02.643Z,23.00
2019-04-05T13:01:35.460Z,23.56
2019-04-05T13:04:08.318Z,23.39
2019-04-05T13:06:42.396Z,23.69
2019-04-05T13:09:15.321Z,23.89
2019-04-05T13:11:48.417Z,23.30
2019-04-05T13:14:21.221Z,23.31
2019-04-05T13:16:55.422Z,23.45
2019-04-05T13:19:30.315Z,23.92
2019-04-05T13:22:04.980Z,23.85
2019-04-05T13:24:40.288Z,23.90
2019-04-05T13:27:12.513Z,23.26
2019-04-05T13:29:47.344Z,23.22
2019-04-05T13:32:22.357Z,23.20
2019-04-05T13:34:55.797Z,23.35
2019-04-05T13:37:30.880Z,23.05
2019-04-05T13:40:06.252Z,23.03
2019-04-05T13:42:39.439Z,22.80
2019-04-05T13:45:12.765Z,22.85
2019-04-05T13:47:45.658Z,22.78
2019-04-05T13:50:19.511Z,22.68
2019-04-05T13:52:52.486Z,22.79
2019-04-05T13:55:25.253Z,22.77
2019-04-05T13:58:01.762Z,22.78
2019-04-05T14:00:35.814Z,22.88
2019-04-05T14:03:08.657Z,23.06
2019-04-05T14:05:41.572Z,23.22
2019-04-05T14:08:15.839Z,22.96
2019-04-05T14:10:49.147Z,23.06
2019-04-05T14:13:22.030Z,22.91
2019-04-05T14:15:54.839Z,22.80
2019-04-05T14:18:29.071Z,22.64
2019-04-05T14:21:01.863Z,22.48
2019-04-05T14:23:36.459Z,22.46
2019-04-05T14:26:12.450Z,22.42
2019-04-05T14:28:45.320Z,22.48
2019-04-05T14:31:23.194Z,22.45
2019-04-05T14:33:59.605Z,22.51
2019-04-05T14:36:32.749Z,22.44
2019-04-05T14:39:09.252Z,22.44
2019-04-05T14:41:42.139Z,22.25
2019-04-05T14:44:16.079Z,22.32
2019-04-05T14:46:48.900Z,22.09
2019-04-05T14:49:21.755Z,21.95
2019-04-05T14:51:56.576Z,21.87
2019-04-05T14:54:30.178Z,21.91
2019-04-05T14:57:05.858Z,22.06
2019-04-05T14:59:39.018Z,21.89
2019-04-05T15:02:11.935Z,22.05
2019-04-05T15:04:44.910Z,21.96
2019-04-05T15:07:20.956Z,22.03
2019-04-05T15:09:55.634Z,21.90
2019-04-05T15:12:29.159Z,21.88
2019-04-05T15:15:02.370Z,21.78
2019-04-05T15:17:47.371Z,21.81
2019-04-05T15:20:10.175Z,21.81
2019-04-05T15:22:43.111Z,21.91
2019-04-05T15:25:17.502Z,22.02
2019-04-05T15:27:53.832Z,22.09
2019-04-05T15:30:26.622Z,21.93
2019-04-05T15:33:03.572Z,22.02
2019-04-05T15:35:36.476Z,22.07
2019-04-05T15:38:09.285Z,21.98
2019-04-05T15:40:42.155Z,22.08
2019-04-05T15:43:15.037Z,22.18
2019-04-05T15:45:47.904Z,22.14
2019-04-05T15:48:22.811Z,21.90
2019-04-05T15:50:57.806Z,21.79
2019-04-05T15:53:32.107Z,21.65
2019-04-05T15:56:05.314Z,21.20
2019-04-05T15:58:38.169Z,20.49
2019-04-05T16:01:11.714Z,19.75
2019-04-05T16:03:44.758Z,19.44
2019-04-05T16:06:17.716Z,19.22
2019-04-05T16:08:52.118Z,18.95
2019-04-05T16:11:25.048Z,18.44
2019-04-05T16:13:57.923Z,18.12
2019-04-05T16:16:32.190Z,17.90
2019-04-05T16:19:05.139Z,17.85
2019-04-05T16:21:38.065Z,17.78
2019-04-05T16:24:10.904Z,17.80
2019-04-05T16:26:43.812Z,17.70
2019-04-05T16:29:16.718Z,17.76
2019-04-05T16:31:49.747Z,17.82
2019-04-05T16:34:22.740Z,17.88
2019-04-05T16:36:55.644Z,17.89
2019-04-05T16:39:28.544Z,17.87
2019-04-05T16:42:01.502Z,17.90
2019-04-05T16:44:34.722Z,17.92
2019-04-05T16:47:07.658Z,17.87
2019-04-05T16:49:40.904Z,17.87
2019-04-05T16:52:13.955Z,17.85
2019-04-05T16:54:46.847Z,17.86
2019-04-05T16:57:20.046Z,17.87
2019-04-05T16:59:52.994Z,17.86
2019-04-05T17:02:25.929Z,17.88
2019-04-05T17:04:59.948Z,17.88
2019-04-05T17:07:33.076Z,17.87
2019-04-05T17:10:06.671Z,17.84
2019-04-05T17:12:39.807Z,17.80
2019-04-05T17:15:12.966Z,17.74
2019-04-05T17:17:45.948Z,17.68
2019-04-05T17:20:19.116Z,17.63
2019-04-05T17:22:58.012Z,17.62
2019-04-05T17:25:26.829Z,17.59
2019-04-05T17:28:00.432Z,17.59
2019-04-05T17:30:36.119Z,17.56
2019-04-05T17:33:08.375Z,17.53
2019-04-05T17:35:41.388Z,17.50
2019-04-05T17:38:14.514Z,17.48
2019-04-05T17:40:48.968Z,17.41
2019-04-05T17:43:21.913Z,17.32
2019-04-05T17:45:55.556Z,17.29
2019-04-05T17:48:28.383Z,17.25
2019-04-05T17:51:01.307Z,17.23
2019-04-05T17:53:34.167Z,17.18
2019-04-05T17:56:07.315Z,17.16
2019-04-05T17:58:40.853Z,17.11
2019-04-05T18:01:13.875Z,17.05
2019-04-05T18:03:46.800Z,17.01
2019-04-05T18:06:19.717Z,17.00
2019-04-05T18:08:52.615Z,16.97
2019-04-05T18:11:25.578Z,16.91
2019-04-05T18:13:58.523Z,16.89
2019-04-05T18:16:31.575Z,16.85
2019-04-05T18:19:04.419Z,16.81
2019-04-05T18:21:37.509Z,16.79
2019-04-05T18:24:10.580Z,16.75
2019-04-05T18:26:43.540Z,16.78
2019-04-05T18:29:16.390Z,16.79
2019-04-05T18:31:49.348Z,16.80
2019-04-05T18:34:22.427Z,16.77
2019-04-05T18:36:55.521Z,16.74
2019-04-05T18:39:31.698Z,16.71
2019-04-05T18:42:04.544Z,16.65
2019-04-05T18:44:37.590Z,16.62
2019-04-05T18:47:10.749Z,16.59
2019-04-05T18:49:43.665Z,16.58
2019-04-05T18:52:16.582Z,16.57
2019-04-05T18:54:49.565Z,16.58
2019-04-05T18:57:22.620Z,16.56
2019-04-05T18:59:55.605Z,16.57
2019-04-05T19:02:28.565Z,16.55
2019-04-05T19:05:01.414Z,16.49
2019-04-05T19:07:34.923Z,16.47
2019-04-05T19:10:08.660Z,16.44
2019-04-05T19:12:41.698Z,16.42
2019-04-05T19:15:14.862Z,16.40
2019-04-05T19:17:48.948Z,16.36
2019-04-05T19:20:21.789Z,16.36
2019-04-05T19:22:54.658Z,16.34
2019-04-05T19:25:27.484Z,16.33
2019-04-05T19:28:00.524Z,16.32
2019-04-05T19:48:36.316Z,16.18
2019-04-05T19:51:09.393Z,16.17
2019-04-05T19:53:42.246Z,16.14
2019-04-05T19:56:15.292Z,16.14
2019-04-05T19:58:48.243Z,16.10
2019-04-05T20:01:21.160Z,16.08
2019-04-05T20:03:54.049Z,16.03
2019-04-05T20:06:26.930Z,16.00
2019-04-05T20:08:59.823Z,16.04
2019-04-05T20:11:34.291Z,15.98
2019-04-05T20:14:07.400Z,15.94
2019-04-05T20:16:41.456Z,15.87
2019-04-05T20:19:15.677Z,15.88
2019-04-05T20:21:48.590Z,15.83
2019-04-05T20:24:23.584Z,15.82
2019-04-05T20:26:56.648Z,15.82
2019-04-05T20:29:29.545Z,15.82
2019-04-05T20:32:02.458Z,15.76
2019-04-05T20:34:35.540Z,15.75
2019-04-05T20:37:08.433Z,15.67
2019-04-05T20:39:41.223Z,15.60
2019-04-05T20:42:14.310Z,15.57
2019-04-05T20:44:47.340Z,15.53
2019-04-05T20:47:20.508Z,15.52
2019-04-05T20:49:53.490Z,15.45
2019-04-05T20:52:26.398Z,15.44
2019-04-05T20:55:02.745Z,15.40
2019-04-05T20:57:35.713Z,15.37
2019-04-05T21:00:10.446Z,15.29
2019-04-05T21:02:44.179Z,15.25
2019-04-05T21:05:25.397Z,15.21
2019-04-05T21:07:51.754Z,15.15
2019-04-05T21:10:24.857Z,15.14
2019-04-05T21:12:57.921Z,15.09
2019-04-05T21:15:30.817Z,15.05
2019-04-05T21:18:03.961Z,14.99
2019-04-05T21:20:37.987Z,14.95
2019-04-05T21:23:10.915Z,14.90
2019-04-05T21:25:43.769Z,14.88
2019-04-05T21:28:16.555Z,14.84
2019-04-05T21:30:50.349Z,14.78
2019-04-05T21:33:25.097Z,14.74
2019-04-05T21:35:58.011Z,14.66
2019-04-05T21:38:30.951Z,14.66
2019-04-05T21:41:03.780Z,14.64
2019-04-05T21:43:36.603Z,14.62
2019-04-05T21:46:09.671Z,14.56
2019-04-05T21:48:42.530Z,14.49
2019-04-05T21:51:16.346Z,14.43
2019-04-05T21:53:49.481Z,14.40
2019-04-05T21:56:22.272Z,14.35
2019-04-05T21:58:55.082Z,14.30
2019-04-05T22:01:28.182Z,14.18
2019-04-05T22:04:02.710Z,14.11
2019-04-05T22:06:35.577Z,14.04
2019-04-05T22:09:10.313Z,13.98
2019-04-05T22:11:43.282Z,13.93
2019-04-05T22:14:16.126Z,13.83
2019-04-05T22:16:48.920Z,13.80
2019-04-05T22:19:21.737Z,13.73
2019-04-05T22:21:54.548Z,13.64
2019-04-05T22:24:27.507Z,13.60
2019-04-05T22:27:00.417Z,13.56
2019-04-05T22:29:33.405Z,13.56
2019-04-05T22:32:08.043Z,13.54
2019-04-05T22:34:40.819Z,13.49
2019-04-05T22:37:13.604Z,13.42
2019-04-05T22:39:46.417Z,13.36
2019-04-05T22:42:20.395Z,13.29
2019-04-05T22:44:55.687Z,13.22
2019-04-05T22:47:29.569Z,13.20
2019-04-05T22:50:02.681Z,13.16
2019-04-05T22:52:36.055Z,13.19
2019-04-05T22:55:11.397Z,13.16
2019-04-05T22:57:43.824Z,13.10
2019-04-05T23:00:18.365Z,13.04
2019-04-05T23:02:52.758Z,13.02
2019-04-05T23:05:25.760Z,13.02
2019-04-05T23:07:58.745Z,12.97
2019-04-05T23:10:31.669Z,12.94
2019-04-05T23:13:04.607Z,12.87
2019-04-05T23:15:37.582Z,12.79
2019-04-05T23:18:10.591Z,12.74
2019-04-05T23:20:43.735Z,12.70
2019-04-05T23:23:16.722Z,12.70
2019-04-05T23:25:49.905Z,12.65
2019-04-05T23:28:22.820Z,12.61
2019-04-05T23:30:55.779Z,12.58
2019-04-05T23:33:30.632Z,12.55
2019-04-05T23:36:03.476Z,12.54
2019-04-05T23:38:36.509Z,12.54
2019-04-05T23:41:10.880Z,12.47
2019-04-05T23:43:44.094Z,12.43
2019-04-05T23:46:19.245Z,12.39
2019-04-05T23:48:52.026Z,12.37
2019-04-05T23:51:24.858Z,12.34
2019-04-05T23:53:57.792Z,12.34
2019-04-05T23:56:30.580Z,12.31
2019-04-05T23:59:07.153Z,12.29
